sensor_id;sensor_type;location;lat;lon;timestamp;P1;durP1;ratioP1;P2;durP2;ratioP2
49730;SDS011;35622;52.008;5.426;2022-08-02T00:02:10;3.40;;;2.15;;
49730;SDS011;35622;52.008;5.426;2022-08-02T00:04:35;4.40;;;2.38;;
49730;SDS011;35622;52.008;5.426;2022-08-02T00:07:01;3.88;;;2.10;;
49730;SDS011;35622;52.008;5.426;2022-08-02T00:09:27;3.58;;;2.30;;
49730;SDS011;35622;52.008;5.426;2022-08-02T00:11:52;3.67;;;2.40;;
49730;SDS011;35622;52.008;5.426;2022-08-02T00:14:18;3.25;;;2.40;;
49730;SDS011;35622;52.008;5.426;2022-08-02T00:16:44;5.60;;;2.20;;
49730;SDS011;35622;52.008;5.426;2022-08-02T00:19:09;5.88;;;2.40;;
49730;SDS011;35622;52.008;5.426;2022-08-02T00:21:35;3.85;;;2.40;;
49730;SDS011;35622;52.008;5.426;2022-08-02T00:24:01;3.25;;;2.10;;
49730;SDS011;35622;52.008;5.426;2022-08-02T00:26:26;5.75;;;2.42;;
49730;SDS011;35622;52.008;5.426;2022-08-02T00:28:52;3.22;;;2.10;;
49730;SDS011;35622;52.008;5.426;2022-08-02T00:31:17;4.28;;;2.47;;
49730;SDS011;35622;52.008;5.426;2022-08-02T00:33:43;4.20;;;2.03;;
49730;SDS011;35622;52.008;5.426;2022-08-02T00:36:09;4.93;;;2.25;;
49730;SDS011;35622;52.008;5.426;2022-08-02T00:38:34;3.85;;;1.92;;
49730;SDS011;35622;52.008;5.426;2022-08-02T00:41:00;4.15;;;2.22;;
49730;SDS011;35622;52.008;5.426;2022-08-02T00:43:25;2.38;;;2.08;;
49730;SDS011;35622;52.008;5.426;2022-08-02T00:45:51;6.50;;;2.50;;
49730;SDS011;35622;52.008;5.426;2022-08-02T00:48:16;3.97;;;2.30;;
49730;SDS011;35622;52.008;5.426;2022-08-02T00:50:42;4.78;;;2.42;;
49730;SDS011;35622;52.008;5.426;2022-08-02T00:53:07;4.53;;;2.20;;
49730;SDS011;35622;52.008;5.426;2022-08-02T00:55:33;4.70;;;2.40;;
49730;SDS011;35622;52.008;5.426;2022-08-02T00:58:00;4.55;;;2.95;;
49730;SDS011;35622;52.008;5.426;2022-08-02T01:00:27;5.47;;;2.20;;
49730;SDS011;35622;52.008;5.426;2022-08-02T01:02:52;5.30;;;2.40;;
49730;SDS011;35622;52.008;5.426;2022-08-02T01:05:18;5.80;;;2.78;;
49730;SDS011;35622;52.008;5.426;2022-08-02T01:07:44;6.65;;;2.83;;
49730;SDS011;35622;52.008;5.426;2022-08-02T01:10:09;3.58;;;2.70;;
49730;SDS011;35622;52.008;5.426;2022-08-02T01:12:35;4.45;;;2.50;;
49730;SDS011;35622;52.008;5.426;2022-08-02T01:15:02;4.07;;;2.70;;
49730;SDS011;35622;52.008;5.426;2022-08-02T01:23:44;2.75;;;2.00;;
49730;SDS011;35622;52.008;5.426;2022-08-02T01:26:48;3.55;;;2.17;;
49730;SDS011;35622;52.008;5.426;2022-08-02T01:32:11;4.75;;;2.15;;
49730;SDS011;35622;52.008;5.426;2022-08-02T01:34:48;3.90;;;2.08;;
49730;SDS011;35622;52.008;5.426;2022-08-02T01:37:21;3.58;;;2.28;;
49730;SDS011;35622;52.008;5.426;2022-08-02T01:39:56;3.40;;;2.28;;
49730;SDS011;35622;52.008;5.426;2022-08-02T01:42:33;5.20;;;2.40;;
49730;SDS011;35622;52.008;5.426;2022-08-02T01:45:01;4.47;;;2.50;;
49730;SDS011;35622;52.008;5.426;2022-08-02T01:47:32;2.72;;;2.30;;
49730;SDS011;35622;52.008;5.426;2022-08-02T01:50:01;4.43;;;2.28;;
49730;SDS011;35622;52.008;5.426;2022-08-02T01:52:30;5.00;;;2.63;;
49730;SDS011;35622;52.008;5.426;2022-08-02T01:55:10;5.50;;;2.22;;
49730;SDS011;35622;52.008;5.426;2022-08-02T01:57:39;4.35;;;2.30;;
49730;SDS011;35622;52.008;5.426;2022-08-02T02:00:08;4.35;;;2.33;;
49730;SDS011;35622;52.008;5.426;2022-08-02T02:02:36;2.60;;;2.10;;
49730;SDS011;35622;52.008;5.426;2022-08-02T02:05:06;3.33;;;2.00;;
49730;SDS011;35622;52.008;5.426;2022-08-02T02:07:35;5.63;;;2.15;;
49730;SDS011;35622;52.008;5.426;2022-08-02T02:10:02;5.20;;;2.30;;
49730;SDS011;35622;52.008;5.426;2022-08-02T02:12:30;5.07;;;2.40;;
49730;SDS011;35622;52.008;5.426;2022-08-02T02:14:57;5.18;;;2.22;;
49730;SDS011;35622;52.008;5.426;2022-08-02T02:17:24;5.72;;;2.00;;
49730;SDS011;35622;52.008;5.426;2022-08-02T02:19:52;3.53;;;2.28;;
49730;SDS011;35622;52.008;5.426;2022-08-02T02:22:19;2.88;;;2.08;;
49730;SDS011;35622;52.008;5.426;2022-08-02T02:24:44;3.53;;;2.10;;
49730;SDS011;35622;52.008;5.426;2022-08-02T02:27:10;4.63;;;1.92;;
49730;SDS011;35622;52.008;5.426;2022-08-02T02:29:38;4.13;;;2.10;;
49730;SDS011;35622;52.008;5.426;2022-08-02T02:32:11;3.92;;;2.28;;
49730;SDS011;35622;52.008;5.426;2022-08-02T02:34:40;4.50;;;2.20;;
49730;SDS011;35622;52.008;5.426;2022-08-02T02:37:11;5.43;;;2.40;;
49730;SDS011;35622;52.008;5.426;2022-08-02T02:39:41;3.78;;;2.45;;
49730;SDS011;35622;52.008;5.426;2022-08-02T02:42:09;6.65;;;2.47;;
49730;SDS011;35622;52.008;5.426;2022-08-02T02:44:37;4.65;;;2.20;;
49730;SDS011;35622;52.008;5.426;2022-08-02T02:47:04;5.70;;;2.28;;
49730;SDS011;35622;52.008;5.426;2022-08-02T02:49:31;3.00;;;2.20;;
49730;SDS011;35622;52.008;5.426;2022-08-02T02:51:58;5.07;;;2.50;;
49730;SDS011;35622;52.008;5.426;2022-08-02T02:54:25;6.35;;;2.20;;
49730;SDS011;35622;52.008;5.426;2022-08-02T02:56:52;5.75;;;2.95;;
49730;SDS011;35622;52.008;5.426;2022-08-02T02:59:18;4.82;;;2.55;;
49730;SDS011;35622;52.008;5.426;2022-08-02T03:01:44;3.75;;;2.53;;
49730;SDS011;35622;52.008;5.426;2022-08-02T03:04:10;3.75;;;2.22;;
49730;SDS011;35622;52.008;5.426;2022-08-02T03:06:36;6.03;;;2.58;;
49730;SDS011;35622;52.008;5.426;2022-08-02T03:09:03;4.78;;;2.60;;
49730;SDS011;35622;52.008;5.426;2022-08-02T03:11:30;4.93;;;2.58;;
49730;SDS011;35622;52.008;5.426;2022-08-02T03:13:57;4.10;;;2.70;;
49730;SDS011;35622;52.008;5.426;2022-08-02T03:16:24;5.35;;;2.25;;
49730;SDS011;35622;52.008;5.426;2022-08-02T03:18:52;4.30;;;2.35;;
49730;SDS011;35622;52.008;5.426;2022-08-02T03:21:18;5.93;;;2.40;;
49730;SDS011;35622;52.008;5.426;2022-08-02T03:23:44;6.20;;;2.30;;
49730;SDS011;35622;52.008;5.426;2022-08-02T03:26:09;7.32;;;2.60;;
49730;SDS011;35622;52.008;5.426;2022-08-02T03:28:35;6.18;;;2.05;;
49730;SDS011;35622;52.008;5.426;2022-08-02T03:31:01;4.75;;;2.20;;
49730;SDS011;35622;52.008;5.426;2022-08-02T03:33:27;4.57;;;2.60;;
49730;SDS011;35622;52.008;5.426;2022-08-02T03:35:55;3.72;;;2.05;;
49730;SDS011;35622;52.008;5.426;2022-08-02T03:38:23;5.22;;;2.22;;
49730;SDS011;35622;52.008;5.426;2022-08-02T03:40:50;2.53;;;2.13;;
49730;SDS011;35622;52.008;5.426;2022-08-02T03:43:17;6.00;;;2.15;;
49730;SDS011;35622;52.008;5.426;2022-08-02T03:45:46;5.20;;;2.30;;
49730;SDS011;35622;52.008;5.426;2022-08-02T03:48:13;3.05;;;2.00;;
49730;SDS011;35622;52.008;5.426;2022-08-02T03:50:40;4.82;;;1.88;;
49730;SDS011;35622;52.008;5.426;2022-08-02T03:53:06;2.90;;;1.88;;
49730;SDS011;35622;52.008;5.426;2022-08-02T03:55:33;5.18;;;2.60;;
49730;SDS011;35622;52.008;5.426;2022-08-02T03:57:59;4.15;;;2.15;;
49730;SDS011;35622;52.008;5.426;2022-08-02T04:00:25;4.95;;;2.25;;
49730;SDS011;35622;52.008;5.426;2022-08-02T04:02:51;4.35;;;2.33;;
49730;SDS011;35622;52.008;5.426;2022-08-02T04:05:17;3.55;;;2.40;;
49730;SDS011;35622;52.008;5.426;2022-08-02T04:07:43;4.50;;;2.20;;
49730;SDS011;35622;52.008;5.426;2022-08-02T04:10:09;5.47;;;2.47;;
49730;SDS011;35622;52.008;5.426;2022-08-02T04:12:35;4.50;;;2.38;;
49730;SDS011;35622;52.008;5.426;2022-08-02T04:15:04;5.13;;;2.90;;
49730;SDS011;35622;52.008;5.426;2022-08-02T04:17:31;6.53;;;2.58;;
49730;SDS011;35622;52.008;5.426;2022-08-02T04:20:01;4.80;;;2.08;;
49730;SDS011;35622;52.008;5.426;2022-08-02T04:22:34;5.63;;;2.88;;
49730;SDS011;35622;52.008;5.426;2022-08-02T04:25:04;5.20;;;2.50;;
49730;SDS011;35622;52.008;5.426;2022-08-02T04:27:31;5.47;;;2.53;;
49730;SDS011;35622;52.008;5.426;2022-08-02T04:30:00;4.72;;;2.20;;
49730;SDS011;35622;52.008;5.426;2022-08-02T04:32:27;5.30;;;2.63;;
49730;SDS011;35622;52.008;5.426;2022-08-02T04:34:53;7.20;;;2.67;;
49730;SDS011;35622;52.008;5.426;2022-08-02T04:37:19;5.65;;;2.42;;
49730;SDS011;35622;52.008;5.426;2022-08-02T04:39:45;5.32;;;2.50;;
49730;SDS011;35622;52.008;5.426;2022-08-02T04:42:18;7.75;;;3.38;;
49730;SDS011;35622;52.008;5.426;2022-08-02T04:44:44;5.55;;;3.72;;
49730;SDS011;35622;52.008;5.426;2022-08-02T04:47:10;8.48;;;3.30;;
49730;SDS011;35622;52.008;5.426;2022-08-02T04:49:36;6.90;;;3.22;;
49730;SDS011;35622;52.008;5.426;2022-08-02T04:52:01;6.32;;;2.60;;
49730;SDS011;35622;52.008;5.426;2022-08-02T04:54:27;6.85;;;2.78;;
49730;SDS011;35622;52.008;5.426;2022-08-02T04:56:52;7.20;;;2.95;;
49730;SDS011;35622;52.008;5.426;2022-08-02T04:59:18;4.53;;;2.70;;
49730;SDS011;35622;52.008;5.426;2022-08-02T05:01:43;4.55;;;2.67;;
49730;SDS011;35622;52.008;5.426;2022-08-02T05:04:09;5.85;;;2.67;;
49730;SDS011;35622;52.008;5.426;2022-08-02T05:06:34;4.28;;;2.60;;
49730;SDS011;35622;52.008;5.426;2022-08-02T05:09:00;6.43;;;2.55;;
49730;SDS011;35622;52.008;5.426;2022-08-02T05:11:26;4.45;;;3.05;;
49730;SDS011;35622;52.008;5.426;2022-08-02T05:13:51;2.45;;;2.10;;
49730;SDS011;35622;52.008;5.426;2022-08-02T05:16:17;8.20;;;2.88;;
49730;SDS011;35622;52.008;5.426;2022-08-02T05:18:43;6.03;;;2.05;;
49730;SDS011;35622;52.008;5.426;2022-08-02T05:21:08;4.63;;;2.58;;
49730;SDS011;35622;52.008;5.426;2022-08-02T05:23:34;5.72;;;3.10;;
49730;SDS011;35622;52.008;5.426;2022-08-02T05:25:59;7.88;;;3.13;;
49730;SDS011;35622;52.008;5.426;2022-08-02T05:28:25;4.93;;;2.90;;
49730;SDS011;35622;52.008;5.426;2022-08-02T05:30:50;6.00;;;2.90;;
49730;SDS011;35622;52.008;5.426;2022-08-02T05:33:16;5.97;;;3.00;;
49730;SDS011;35622;52.008;5.426;2022-08-02T05:35:42;6.25;;;2.70;;
49730;SDS011;35622;52.008;5.426;2022-08-02T05:38:08;7.47;;;3.05;;
49730;SDS011;35622;52.008;5.426;2022-08-02T05:40:33;7.30;;;3.42;;
49730;SDS011;35622;52.008;5.426;2022-08-02T05:42:59;7.85;;;2.70;;
49730;SDS011;35622;52.008;5.426;2022-08-02T05:45:24;4.30;;;2.53;;
49730;SDS011;35622;52.008;5.426;2022-08-02T05:47:50;3.90;;;2.60;;
49730;SDS011;35622;52.008;5.426;2022-08-02T05:50:16;4.63;;;2.92;;
49730;SDS011;35622;52.008;5.426;2022-08-02T05:52:49;8.30;;;2.42;;
49730;SDS011;35622;52.008;5.426;2022-08-02T05:55:31;3.15;;;2.00;;
49730;SDS011;35622;52.008;5.426;2022-08-02T05:58:05;3.95;;;2.00;;
49730;SDS011;35622;52.008;5.426;2022-08-02T06:00:40;5.00;;;2.63;;
49730;SDS011;35622;52.008;5.426;2022-08-02T06:03:20;4.13;;;2.35;;
49730;SDS011;35622;52.008;5.426;2022-08-02T06:06:11;3.80;;;1.60;;
49730;SDS011;35622;52.008;5.426;2022-08-02T06:08:42;5.35;;;1.80;;
49730;SDS011;35622;52.008;5.426;2022-08-02T06:11:14;4.88;;;2.70;;
49730;SDS011;35622;52.008;5.426;2022-08-02T06:13:44;5.68;;;2.42;;
49730;SDS011;35622;52.008;5.426;2022-08-02T06:16:10;3.92;;;2.22;;
49730;SDS011;35622;52.008;5.426;2022-08-02T06:18:36;5.85;;;4.20;;
49730;SDS011;35622;52.008;5.426;2022-08-02T06:21:05;6.40;;;2.75;;
49730;SDS011;35622;52.008;5.426;2022-08-02T06:23:31;3.10;;;1.58;;
49730;SDS011;35622;52.008;5.426;2022-08-02T06:25:57;6.55;;;4.38;;
49730;SDS011;35622;52.008;5.426;2022-08-02T06:28:24;4.85;;;2.78;;
49730;SDS011;35622;52.008;5.426;2022-08-02T06:30:50;8.77;;;3.80;;
49730;SDS011;35622;52.008;5.426;2022-08-02T06:33:17;6.28;;;3.33;;
49730;SDS011;35622;52.008;5.426;2022-08-02T06:38:36;6.40;;;3.53;;
49730;SDS011;35622;52.008;5.426;2022-08-02T06:41:07;4.63;;;2.80;;
49730;SDS011;35622;52.008;5.426;2022-08-02T06:46:26;6.07;;;3.45;;
49730;SDS011;35622;52.008;5.426;2022-08-02T06:48:52;4.88;;;1.85;;
49730;SDS011;35622;52.008;5.426;2022-08-02T06:51:18;7.43;;;3.30;;
49730;SDS011;35622;52.008;5.426;2022-08-02T06:53:44;4.63;;;2.20;;
49730;SDS011;35622;52.008;5.426;2022-08-02T06:56:11;7.15;;;3.83;;
49730;SDS011;35622;52.008;5.426;2022-08-02T06:58:37;7.93;;;3.67;;
49730;SDS011;35622;52.008;5.426;2022-08-02T07:01:03;5.40;;;3.05;;
49730;SDS011;35622;52.008;5.426;2022-08-02T07:03:34;7.57;;;5.13;;
49730;SDS011;35622;52.008;5.426;2022-08-02T07:06:02;4.72;;;4.22;;
49730;SDS011;35622;52.008;5.426;2022-08-02T07:08:28;6.90;;;5.88;;
49730;SDS011;35622;52.008;5.426;2022-08-02T07:10:58;7.22;;;4.43;;
49730;SDS011;35622;52.008;5.426;2022-08-02T07:13:25;6.78;;;3.80;;
49730;SDS011;35622;52.008;5.426;2022-08-02T07:15:54;6.43;;;4.88;;
49730;SDS011;35622;52.008;5.426;2022-08-02T07:18:21;5.32;;;4.15;;
49730;SDS011;35622;52.008;5.426;2022-08-02T07:20:47;6.50;;;5.75;;
49730;SDS011;35622;52.008;5.426;2022-08-02T07:23:13;7.43;;;6.60;;
49730;SDS011;35622;52.008;5.426;2022-08-02T07:25:38;8.13;;;5.60;;
49730;SDS011;35622;52.008;5.426;2022-08-02T07:28:05;6.07;;;4.07;;
49730;SDS011;35622;52.008;5.426;2022-08-02T07:30:32;7.38;;;4.10;;
49730;SDS011;35622;52.008;5.426;2022-08-02T07:32:58;8.20;;;5.40;;
49730;SDS011;35622;52.008;5.426;2022-08-02T07:35:24;7.43;;;6.65;;
49730;SDS011;35622;52.008;5.426;2022-08-02T07:37:50;8.35;;;6.82;;
49730;SDS011;35622;52.008;5.426;2022-08-02T07:40:16;7.75;;;6.93;;
49730;SDS011;35622;52.008;5.426;2022-08-02T07:42:42;8.48;;;6.18;;
49730;SDS011;35622;52.008;5.426;2022-08-02T07:45:08;9.18;;;6.97;;
49730;SDS011;35622;52.008;5.426;2022-08-02T07:47:35;7.82;;;5.70;;
49730;SDS011;35622;52.008;5.426;2022-08-02T07:50:02;11.07;;;8.30;;
49730;SDS011;35622;52.008;5.426;2022-08-02T07:52:29;7.05;;;5.78;;
49730;SDS011;35622;52.008;5.426;2022-08-02T07:54:54;7.80;;;7.00;;
49730;SDS011;35622;52.008;5.426;2022-08-02T07:57:20;9.13;;;5.90;;
49730;SDS011;35622;52.008;5.426;2022-08-02T07:59:45;9.95;;;7.22;;
49730;SDS011;35622;52.008;5.426;2022-08-02T08:02:12;8.88;;;7.90;;
49730;SDS011;35622;52.008;5.426;2022-08-02T08:04:39;8.02;;;7.10;;
49730;SDS011;35622;52.008;5.426;2022-08-02T08:07:04;8.80;;;7.20;;
49730;SDS011;35622;52.008;5.426;2022-08-02T08:09:33;9.95;;;8.02;;
49730;SDS011;35622;52.008;5.426;2022-08-02T08:12:04;8.75;;;7.85;;
49730;SDS011;35622;52.008;5.426;2022-08-02T08:14:30;7.55;;;5.90;;
49730;SDS011;35622;52.008;5.426;2022-08-02T08:16:56;6.43;;;5.57;;
49730;SDS011;35622;52.008;5.426;2022-08-02T08:19:21;6.95;;;4.75;;
49730;SDS011;35622;52.008;5.426;2022-08-02T08:21:47;7.15;;;5.28;;
49730;SDS011;35622;52.008;5.426;2022-08-02T08:24:12;6.70;;;4.30;;
49730;SDS011;35622;52.008;5.426;2022-08-02T08:26:38;6.72;;;4.55;;
49730;SDS011;35622;52.008;5.426;2022-08-02T08:29:04;5.38;;;3.92;;
49730;SDS011;35622;52.008;5.426;2022-08-02T08:31:31;5.97;;;5.03;;
49730;SDS011;35622;52.008;5.426;2022-08-02T08:33:57;5.45;;;4.78;;
49730;SDS011;35622;52.008;5.426;2022-08-02T08:36:22;5.38;;;3.67;;
49730;SDS011;35622;52.008;5.426;2022-08-02T08:38:48;7.10;;;3.97;;
49730;SDS011;35622;52.008;5.426;2022-08-02T08:41:17;5.13;;;3.92;;
49730;SDS011;35622;52.008;5.426;2022-08-02T08:43:44;4.03;;;3.38;;
49730;SDS011;35622;52.008;5.426;2022-08-02T08:46:14;4.97;;;3.35;;
49730;SDS011;35622;52.008;5.426;2022-08-02T08:48:50;4.13;;;2.55;;
49730;SDS011;35622;52.008;5.426;2022-08-02T08:51:18;2.78;;;2.58;;
49730;SDS011;35622;52.008;5.426;2022-08-02T08:53:47;3.67;;;2.30;;
49730;SDS011;35622;52.008;5.426;2022-08-02T08:56:14;3.67;;;2.42;;
49730;SDS011;35622;52.008;5.426;2022-08-02T08:58:40;3.00;;;2.53;;
49730;SDS011;35622;52.008;5.426;2022-08-02T09:01:08;4.28;;;3.88;;
49730;SDS011;35622;52.008;5.426;2022-08-02T09:03:33;4.65;;;2.60;;
49730;SDS011;35622;52.008;5.426;2022-08-02T09:05:59;3.65;;;2.55;;
49730;SDS011;35622;52.008;5.426;2022-08-02T09:08:25;4.28;;;2.97;;
49730;SDS011;35622;52.008;5.426;2022-08-02T09:10:50;3.38;;;3.00;;
49730;SDS011;35622;52.008;5.426;2022-08-02T09:13:20;4.75;;;4.35;;
49730;SDS011;35622;52.008;5.426;2022-08-02T09:15:58;5.50;;;4.18;;
49730;SDS011;35622;52.008;5.426;2022-08-02T09:18:31;4.75;;;3.42;;
49730;SDS011;35622;52.008;5.426;2022-08-02T09:21:04;6.50;;;4.35;;
49730;SDS011;35622;52.008;5.426;2022-08-02T09:23:33;5.72;;;4.45;;
49730;SDS011;35622;52.008;5.426;2022-08-02T09:26:02;5.57;;;4.20;;
49730;SDS011;35622;52.008;5.426;2022-08-02T09:28:36;6.78;;;4.38;;
49730;SDS011;35622;52.008;5.426;2022-08-02T09:33:29;5.45;;;4.93;;
49730;SDS011;35622;52.008;5.426;2022-08-02T09:36:13;4.82;;;3.70;;
49730;SDS011;35622;52.008;5.426;2022-08-02T09:38:51;5.80;;;4.07;;
49730;SDS011;35622;52.008;5.426;2022-08-02T09:41:22;4.93;;;3.95;;
49730;SDS011;35622;52.008;5.426;2022-08-02T09:43:49;4.85;;;4.38;;
49730;SDS011;35622;52.008;5.426;2022-08-02T09:46:16;4.30;;;3.42;;
49730;SDS011;35622;52.008;5.426;2022-08-02T09:51:33;6.45;;;5.00;;
49730;SDS011;35622;52.008;5.426;2022-08-02T09:54:02;4.65;;;3.55;;
49730;SDS011;35622;52.008;5.426;2022-08-02T09:59:06;4.72;;;3.78;;
49730;SDS011;35622;52.008;5.426;2022-08-02T10:01:32;4.75;;;3.67;;
49730;SDS011;35622;52.008;5.426;2022-08-02T10:03:59;5.72;;;3.90;;
49730;SDS011;35622;52.008;5.426;2022-08-02T10:06:27;5.40;;;3.10;;
49730;SDS011;35622;52.008;5.426;2022-08-02T10:08:54;3.88;;;2.83;;
49730;SDS011;35622;52.008;5.426;2022-08-02T10:11:20;4.45;;;2.90;;
49730;SDS011;35622;52.008;5.426;2022-08-02T10:13:47;3.05;;;2.30;;
49730;SDS011;35622;52.008;5.426;2022-08-02T10:16:13;5.30;;;2.40;;
49730;SDS011;35622;52.008;5.426;2022-08-02T10:18:40;4.80;;;3.10;;
49730;SDS011;35622;52.008;5.426;2022-08-02T10:21:12;3.45;;;2.90;;
49730;SDS011;35622;52.008;5.426;2022-08-02T10:23:53;3.95;;;3.08;;
49730;SDS011;35622;52.008;5.426;2022-08-02T10:26:20;3.28;;;2.88;;
49730;SDS011;35622;52.008;5.426;2022-08-02T10:28:47;3.42;;;2.85;;
49730;SDS011;35622;52.008;5.426;2022-08-02T10:31:15;3.78;;;2.20;;
49730;SDS011;35622;52.008;5.426;2022-08-02T10:33:45;5.30;;;2.80;;
49730;SDS011;35622;52.008;5.426;2022-08-02T10:36:13;3.03;;;2.72;;
49730;SDS011;35622;52.008;5.426;2022-08-02T10:38:39;4.13;;;3.00;;
49730;SDS011;35622;52.008;5.426;2022-08-02T10:41:05;3.03;;;2.53;;
49730;SDS011;35622;52.008;5.426;2022-08-02T10:54:33;2.90;;;2.17;;
49730;SDS011;35622;52.008;5.426;2022-08-02T10:57:29;3.58;;;2.63;;
49730;SDS011;35622;52.008;5.426;2022-08-02T11:00:00;4.15;;;2.50;;
49730;SDS011;35622;52.008;5.426;2022-08-02T11:02:42;4.13;;;2.85;;
49730;SDS011;35622;52.008;5.426;2022-08-02T11:05:09;5.55;;;2.30;;
49730;SDS011;35622;52.008;5.426;2022-08-02T11:07:38;3.20;;;2.67;;
49730;SDS011;35622;52.008;5.426;2022-08-02T11:13:22;3.67;;;2.60;;
49730;SDS011;35622;52.008;5.426;2022-08-02T11:19:27;4.30;;;2.25;;
49730;SDS011;35622;52.008;5.426;2022-08-02T11:21:25;3.67;;;1.85;;
49730;SDS011;35622;52.008;5.426;2022-08-02T11:23:52;3.22;;;1.80;;
49730;SDS011;35622;52.008;5.426;2022-08-02T11:28:53;2.67;;;1.60;;
49730;SDS011;35622;52.008;5.426;2022-08-02T11:31:19;4.10;;;2.05;;
49730;SDS011;35622;52.008;5.426;2022-08-02T11:33:47;2.65;;;1.80;;
49730;SDS011;35622;52.008;5.426;2022-08-02T11:36:14;3.42;;;1.83;;
49730;SDS011;35622;52.008;5.426;2022-08-02T11:38:40;5.13;;;2.22;;
49730;SDS011;35622;52.008;5.426;2022-08-02T11:41:06;2.20;;;2.00;;
49730;SDS011;35622;52.008;5.426;2022-08-02T11:43:32;2.13;;;1.60;;
49730;SDS011;35622;52.008;5.426;2022-08-02T11:46:02;2.78;;;1.77;;
49730;SDS011;35622;52.008;5.426;2022-08-02T11:48:36;2.20;;;1.60;;
49730;SDS011;35622;52.008;5.426;2022-08-02T11:51:10;2.08;;;1.40;;
49730;SDS011;35622;52.008;5.426;2022-08-02T11:56:10;3.00;;;1.70;;
49730;SDS011;35622;52.008;5.426;2022-08-02T11:58:36;1.88;;;1.45;;
49730;SDS011;35622;52.008;5.426;2022-08-02T12:01:03;2.67;;;1.70;;
49730;SDS011;35622;52.008;5.426;2022-08-02T12:03:36;1.83;;;1.55;;
49730;SDS011;35622;52.008;5.426;2022-08-02T12:06:03;1.85;;;1.30;;
49730;SDS011;35622;52.008;5.426;2022-08-02T12:08:30;1.60;;;1.20;;
49730;SDS011;35622;52.008;5.426;2022-08-02T12:10:56;2.00;;;1.20;;
49730;SDS011;35622;52.008;5.426;2022-08-02T12:13:25;1.83;;;1.63;;
49730;SDS011;35622;52.008;5.426;2022-08-02T12:15:51;2.60;;;1.42;;
49730;SDS011;35622;52.008;5.426;2022-08-02T12:18:18;4.65;;;1.70;;
49730;SDS011;35622;52.008;5.426;2022-08-02T12:21:19;3.00;;;1.50;;
49730;SDS011;35622;52.008;5.426;2022-08-02T12:23:49;2.90;;;1.88;;
49730;SDS011;35622;52.008;5.426;2022-08-02T12:26:15;4.55;;;2.10;;
49730;SDS011;35622;52.008;5.426;2022-08-02T12:28:40;5.75;;;1.83;;
49730;SDS011;35622;52.008;5.426;2022-08-02T12:31:07;5.97;;;2.28;;
49730;SDS011;35622;52.008;5.426;2022-08-02T12:33:47;2.92;;;1.50;;
49730;SDS011;35622;52.008;5.426;2022-08-02T12:36:18;4.35;;;1.95;;
49730;SDS011;35622;52.008;5.426;2022-08-02T12:39:04;4.57;;;1.70;;
49730;SDS011;35622;52.008;5.426;2022-08-02T12:41:40;2.15;;;1.58;;
49730;SDS011;35622;52.008;5.426;2022-08-02T12:44:13;3.20;;;1.60;;
49730;SDS011;35622;52.008;5.426;2022-08-02T12:46:40;3.00;;;1.40;;
49730;SDS011;35622;52.008;5.426;2022-08-02T12:49:18;2.20;;;1.80;;
49730;SDS011;35622;52.008;5.426;2022-08-02T12:51:44;3.67;;;1.45;;
49730;SDS011;35622;52.008;5.426;2022-08-02T12:56:39;2.03;;;1.50;;
49730;SDS011;35622;52.008;5.426;2022-08-02T12:59:04;1.67;;;1.25;;
49730;SDS011;35622;52.008;5.426;2022-08-02T13:01:30;3.72;;;1.70;;
49730;SDS011;35622;52.008;5.426;2022-08-02T13:03:57;3.47;;;1.50;;
49730;SDS011;35622;52.008;5.426;2022-08-02T13:06:23;2.55;;;1.30;;
49730;SDS011;35622;52.008;5.426;2022-08-02T13:08:49;1.80;;;1.20;;
49730;SDS011;35622;52.008;5.426;2022-08-02T13:11:16;4.97;;;1.38;;
49730;SDS011;35622;52.008;5.426;2022-08-02T13:13:41;2.50;;;1.20;;
49730;SDS011;35622;52.008;5.426;2022-08-02T13:16:08;4.65;;;1.50;;
49730;SDS011;35622;52.008;5.426;2022-08-02T13:18:34;3.72;;;1.50;;
49730;SDS011;35622;52.008;5.426;2022-08-02T13:21:00;2.92;;;1.23;;
49730;SDS011;35622;52.008;5.426;2022-08-02T13:23:28;2.92;;;1.40;;
49730;SDS011;35622;52.008;5.426;2022-08-02T13:25:54;2.85;;;1.40;;
49730;SDS011;35622;52.008;5.426;2022-08-02T13:28:19;3.05;;;1.27;;
49730;SDS011;35622;52.008;5.426;2022-08-02T13:30:45;3.33;;;1.15;;
49730;SDS011;35622;52.008;5.426;2022-08-02T13:33:11;2.85;;;1.20;;
49730;SDS011;35622;52.008;5.426;2022-08-02T13:35:37;2.80;;;1.13;;
49730;SDS011;35622;52.008;5.426;2022-08-02T13:38:03;3.58;;;1.05;;
49730;SDS011;35622;52.008;5.426;2022-08-02T13:40:30;3.45;;;1.35;;
49730;SDS011;35622;52.008;5.426;2022-08-02T13:42:56;3.38;;;1.13;;
49730;SDS011;35622;52.008;5.426;2022-08-02T13:45:22;1.95;;;1.23;;
49730;SDS011;35622;52.008;5.426;2022-08-02T13:47:48;3.55;;;1.17;;
49730;SDS011;35622;52.008;5.426;2022-08-02T13:50:14;1.67;;;0.90;;
49730;SDS011;35622;52.008;5.426;2022-08-02T13:52:39;3.75;;;1.35;;
49730;SDS011;35622;52.008;5.426;2022-08-02T13:55:05;3.78;;;1.15;;
49730;SDS011;35622;52.008;5.426;2022-08-02T13:57:31;3.65;;;1.00;;
49730;SDS011;35622;52.008;5.426;2022-08-02T13:59:57;2.67;;;1.00;;
49730;SDS011;35622;52.008;5.426;2022-08-02T14:02:23;3.65;;;1.20;;
49730;SDS011;35622;52.008;5.426;2022-08-02T14:04:48;4.07;;;1.20;;
49730;SDS011;35622;52.008;5.426;2022-08-02T14:07:14;3.25;;;1.27;;
49730;SDS011;35622;52.008;5.426;2022-08-02T14:09:40;3.22;;;1.33;;
49730;SDS011;35622;52.008;5.426;2022-08-02T14:12:07;2.83;;;1.10;;
49730;SDS011;35622;52.008;5.426;2022-08-02T14:14:34;3.28;;;1.00;;
49730;SDS011;35622;52.008;5.426;2022-08-02T14:16:59;2.78;;;1.10;;
49730;SDS011;35622;52.008;5.426;2022-08-02T14:19:25;3.70;;;1.10;;
49730;SDS011;35622;52.008;5.426;2022-08-02T14:21:50;3.78;;;1.15;;
49730;SDS011;35622;52.008;5.426;2022-08-02T14:24:17;2.40;;;1.20;;
49730;SDS011;35622;52.008;5.426;2022-08-02T14:26:44;3.33;;;1.20;;
49730;SDS011;35622;52.008;5.426;2022-08-02T14:29:10;2.63;;;1.17;;
49730;SDS011;35622;52.008;5.426;2022-08-02T14:31:36;3.63;;;1.30;;
49730;SDS011;35622;52.008;5.426;2022-08-02T14:34:01;3.83;;;1.40;;
49730;SDS011;35622;52.008;5.426;2022-08-02T14:36:27;5.10;;;1.40;;
49730;SDS011;35622;52.008;5.426;2022-08-02T14:38:52;2.72;;;1.35;;
49730;SDS011;35622;52.008;5.426;2022-08-02T14:41:18;2.65;;;1.42;;
49730;SDS011;35622;52.008;5.426;2022-08-02T14:43:44;3.00;;;1.33;;
49730;SDS011;35622;52.008;5.426;2022-08-02T14:46:28;4.53;;;1.73;;
49730;SDS011;35622;52.008;5.426;2022-08-02T14:48:54;4.13;;;1.60;;
49730;SDS011;35622;52.008;5.426;2022-08-02T14:51:20;3.75;;;1.50;;
49730;SDS011;35622;52.008;5.426;2022-08-02T14:53:46;5.13;;;1.60;;
49730;SDS011;35622;52.008;5.426;2022-08-02T14:56:11;5.65;;;1.77;;
49730;SDS011;35622;52.008;5.426;2022-08-02T14:58:37;2.95;;;1.65;;
49730;SDS011;35622;52.008;5.426;2022-08-02T15:01:02;3.45;;;2.20;;
49730;SDS011;35622;52.008;5.426;2022-08-02T15:03:28;3.85;;;1.65;;
49730;SDS011;35622;52.008;5.426;2022-08-02T15:05:54;4.70;;;2.45;;
49730;SDS011;35622;52.008;5.426;2022-08-02T15:08:20;8.18;;;5.75;;
49730;SDS011;35622;52.008;5.426;2022-08-02T15:10:45;4.90;;;3.45;;
49730;SDS011;35622;52.008;5.426;2022-08-02T15:13:11;3.70;;;2.20;;
49730;SDS011;35622;52.008;5.426;2022-08-02T15:15:37;7.07;;;5.03;;
49730;SDS011;35622;52.008;5.426;2022-08-02T15:18:02;6.85;;;3.30;;
49730;SDS011;35622;52.008;5.426;2022-08-02T15:20:28;3.35;;;1.55;;
49730;SDS011;35622;52.008;5.426;2022-08-02T15:22:53;4.80;;;2.25;;
49730;SDS011;35622;52.008;5.426;2022-08-02T15:25:20;5.35;;;2.88;;
49730;SDS011;35622;52.008;5.426;2022-08-02T15:27:45;6.70;;;2.00;;
49730;SDS011;35622;52.008;5.426;2022-08-02T15:30:11;7.45;;;4.20;;
49730;SDS011;35622;52.008;5.426;2022-08-02T15:32:37;5.13;;;3.20;;
49730;SDS011;35622;52.008;5.426;2022-08-02T15:35:02;7.70;;;6.68;;
49730;SDS011;35622;52.008;5.426;2022-08-02T15:37:28;5.90;;;2.10;;
49730;SDS011;35622;52.008;5.426;2022-08-02T15:39:57;4.07;;;1.80;;